createdAt,value
2022-11-01T00:01:26.413Z,7.74
2022-11-01T00:03:52.961Z,7.90
2022-11-01T00:06:19.731Z,7.99
2022-11-01T00:08:46.324Z,7.92
2022-11-01T00:11:14.311Z,7.91
2022-11-01T00:13:45.202Z,7.95
2022-11-01T00:16:11.859Z,7.93
2022-11-01T00:18:38.650Z,7.85
2022-11-01T00:21:05.622Z,8.02
2022-11-01T00:23:32.236Z,8.02
2022-11-01T00:25:59.436Z,8.02
2022-11-01T00:28:26.148Z,8.03
2022-11-01T00:30:55.390Z,8.04
2022-11-01T00:33:22.005Z,8.00
2022-11-01T00:35:48.573Z,8.04
2022-11-01T00:38:16.352Z,8.04
2022-11-01T00:40:43.577Z,8.26
2022-11-01T00:43:10.775Z,8.18
2022-11-01T00:45:37.462Z,8.17
2022-11-01T00:48:06.181Z,8.09
2022-11-01T00:50:32.779Z,8.02
2022-11-01T00:52:59.362Z,8.01
2022-11-01T00:55:26.046Z,7.98
2022-11-01T00:57:52.657Z,7.94
2022-11-01T01:00:19.506Z,7.95
2022-11-01T01:02:46.060Z,7.87
2022-11-01T01:05:13.988Z,7.91
2022-11-01T01:07:40.684Z,7.80
2022-11-01T01:10:08.130Z,7.78
2022-11-01T01:12:34.709Z,7.77
2022-11-01T01:15:01.743Z,7.71
2022-11-01T01:17:31.245Z,7.62
2022-11-01T01:20:00.378Z,7.59
2022-11-01T01:22:28.535Z,7.69
2022-11-01T01:24:55.147Z,7.66
2022-11-01T01:27:21.876Z,7.69
2022-11-01T01:29:48.417Z,7.83
2022-11-01T01:32:16.518Z,7.68
2022-11-01T01:34:43.103Z,7.61
2022-11-01T01:37:10.799Z,7.51
2022-11-01T01:39:38.782Z,7.47
2022-11-01T01:42:16.021Z,7.46
2022-11-01T01:45:14.885Z,7.47
2022-11-01T01:47:43.196Z,7.54
2022-11-01T01:50:13.251Z,7.49
2022-11-01T01:52:43.817Z,7.40
2022-11-01T01:55:15.010Z,7.38
2022-11-01T01:57:42.507Z,7.49
2022-11-01T02:00:10.454Z,7.51
2022-11-01T02:02:37.179Z,7.43
2022-11-01T02:05:10.625Z,7.56
2022-11-01T02:07:37.274Z,7.48
2022-11-01T02:10:04.693Z,7.40
2022-11-01T02:12:35.895Z,7.35
2022-11-01T02:15:03.998Z,7.41
2022-11-01T02:17:35.782Z,7.49
2022-11-01T02:20:25.645Z,7.61
2022-11-01T02:23:19.897Z,7.53
2022-11-01T02:26:00.507Z,7.53
2022-11-01T02:28:47.754Z,7.67
2022-11-01T02:31:35.122Z,7.69
2022-11-01T02:34:10.613Z,7.68
2022-11-01T02:36:44.407Z,7.69
2022-11-01T02:39:18.642Z,7.92
2022-11-01T02:41:50.931Z,7.96
2022-11-01T02:44:22.943Z,7.94
2022-11-01T02:46:49.575Z,7.87
2022-11-01T02:49:18.710Z,8.06
2022-11-01T02:51:47.004Z,7.98
2022-11-01T02:54:20.822Z,7.94
2022-11-01T02:56:47.449Z,7.89
2022-11-01T02:59:19.688Z,7.80
2022-11-01T03:01:52.237Z,7.79
2022-11-01T03:04:20.356Z,7.81
2022-11-01T03:06:51.501Z,7.77
2022-11-01T03:09:18.170Z,7.83
2022-11-01T03:11:54.639Z,7.81
2022-11-01T03:14:30.285Z,7.86
2022-11-01T03:17:02.362Z,7.95
2022-11-01T03:19:37.715Z,7.85
2022-11-01T03:22:10.679Z,7.96
2022-11-01T03:24:44.007Z,8.00
2022-11-01T03:27:16.235Z,8.09
2022-11-01T03:29:48.326Z,8.06
2022-11-01T03:32:16.899Z,7.98
2022-11-01T03:34:46.475Z,8.13
2022-11-01T03:37:13.682Z,8.13
2022-11-01T03:39:44.615Z,8.07
2022-11-01T03:42:14.798Z,8.10
2022-11-01T03:44:44.753Z,8.23
2022-11-01T03:47:12.148Z,8.37
2022-11-01T03:49:38.809Z,8.23
2022-11-01T03:52:06.993Z,8.23
2022-11-01T03:54:33.650Z,8.19
2022-11-01T03:57:00.271Z,8.17
2022-11-01T03:59:26.847Z,8.23
2022-11-01T04:01:53.529Z,8.30
2022-11-01T04:04:20.221Z,8.36
2022-11-01T04:06:46.806Z,8.46
2022-11-01T04:09:14.705Z,8.55
2022-11-01T04:11:41.267Z,8.72
2022-11-01T04:14:07.852Z,8.79
2022-11-01T04:16:34.410Z,8.74
2022-11-01T04:19:00.965Z,8.83
2022-11-01T04:21:31.295Z,8.81
2022-11-01T04:23:58.124Z,8.90
2022-11-01T04:26:26.323Z,8.83
2022-11-01T04:28:52.897Z,8.82
2022-11-01T04:31:19.467Z,8.89
2022-11-01T04:33:46.138Z,9.07
2022-11-01T04:36:12.704Z,8.97
2022-11-01T04:38:39.306Z,8.93
2022-11-01T04:41:05.891Z,8.93
2022-11-01T04:43:33.811Z,9.14
2022-11-01T04:46:00.397Z,9.25
2022-11-01T04:48:27.044Z,9.29
2022-11-01T04:50:53.634Z,9.36
2022-11-01T04:53:20.205Z,9.30
2022-11-01T04:55:46.762Z,9.20
2022-11-01T04:58:13.328Z,9.26
2022-11-01T05:00:41.266Z,9.24
2022-11-01T05:03:09.786Z,9.23
2022-11-01T05:05:36.473Z,9.28
2022-11-01T05:08:05.344Z,9.29
2022-11-01T05:10:32.751Z,9.26
2022-11-01T05:12:59.713Z,9.39
2022-11-01T05:15:26.866Z,9.40
2022-11-01T05:17:54.789Z,9.43
2022-11-01T05:20:21.363Z,9.46
2022-11-01T05:22:47.922Z,9.63
2022-11-01T05:25:14.693Z,9.49
2022-11-01T05:27:41.266Z,9.51
2022-11-01T05:30:09.402Z,9.56
2022-11-01T05:32:36.130Z,9.54
2022-11-01T05:35:04.994Z,9.52
2022-11-01T05:37:31.562Z,9.54
2022-11-01T05:39:58.096Z,9.55
2022-11-01T05:42:24.668Z,9.49
2022-11-01T05:44:51.184Z,9.42
2022-11-01T05:47:17.784Z,9.48
2022-11-01T05:49:44.348Z,9.55
2022-11-01T05:52:12.283Z,9.56
2022-11-01T05:54:38.833Z,9.53
2022-11-01T05:57:05.745Z,9.55
2022-11-01T05:59:32.310Z,9.65
2022-11-01T06:01:58.959Z,9.68
2022-11-01T06:04:25.588Z,9.61
2022-11-01T06:06:52.130Z,9.58
2022-11-01T06:09:20.152Z,9.57
2022-11-01T06:11:46.741Z,9.58
2022-11-01T06:14:13.314Z,9.62
2022-11-01T06:16:39.884Z,9.68
2022-11-01T06:19:06.590Z,9.68
2022-11-01T06:21:33.324Z,9.72
2022-11-01T06:23:59.885Z,9.72
2022-11-01T06:26:27.818Z,9.71
2022-11-01T06:28:54.403Z,9.58
2022-11-01T06:31:20.996Z,9.75
2022-11-01T06:33:49.081Z,9.71
2022-11-01T06:36:15.613Z,9.68
2022-11-01T06:38:42.194Z,9.72
2022-11-01T06:41:08.722Z,9.78
2022-11-01T06:43:36.672Z,9.71
2022-11-01T06:46:03.482Z,9.72
2022-11-01T06:48:30.227Z,9.65
2022-11-01T06:50:56.785Z,9.93
2022-11-01T06:53:23.962Z,10.01
2022-11-01T06:55:50.928Z,9.98
2022-11-01T06:58:17.595Z,10.20
2022-11-01T07:00:45.627Z,10.18
2022-11-01T07:03:14.120Z,10.27
2022-11-01T07:05:41.501Z,10.25
2022-11-01T07:08:10.480Z,10.30
2022-11-01T07:10:38.265Z,10.32
2022-11-01T07:13:06.267Z,10.35
2022-11-01T07:15:32.871Z,10.22
2022-11-01T07:18:02.880Z,10.09
2022-11-01T07:20:31.131Z,10.18
2022-11-01T07:22:58.980Z,10.15
2022-11-01T07:25:26.043Z,10.16
2022-11-01T07:27:52.741Z,10.12
2022-11-01T07:30:19.526Z,10.10
2022-11-01T07:32:46.350Z,10.19
2022-11-01T07:35:14.455Z,10.24
2022-11-01T07:37:41.135Z,10.32
2022-11-01T07:40:08.430Z,10.37
2022-11-01T07:42:41.066Z,10.57
2022-11-01T07:45:11.981Z,10.52
2022-11-01T07:47:39.537Z,10.68
2022-11-01T07:50:07.231Z,10.82
2022-11-01T07:52:35.141Z,10.98
2022-11-01T07:55:01.659Z,10.91
2022-11-01T07:57:28.198Z,11.03
2022-11-01T07:59:54.753Z,11.11
2022-11-01T08:02:21.412Z,11.26
2022-11-01T08:04:48.042Z,11.51
2022-11-01T08:07:14.594Z,11.59
2022-11-01T08:09:42.480Z,11.69
2022-11-01T08:12:08.995Z,11.72
2022-11-01T08:14:35.561Z,11.79
2022-11-01T08:17:02.057Z,11.76
2022-11-01T08:19:28.703Z,11.63
2022-11-01T08:21:57.552Z,11.64
2022-11-01T08:24:24.088Z,11.63
2022-11-01T08:26:52.097Z,11.57
2022-11-01T08:29:18.866Z,11.56
2022-11-01T08:31:45.721Z,11.46
2022-11-01T08:34:15.889Z,11.44
2022-11-01T08:36:43.345Z,11.41
2022-11-01T08:41:41.512Z,11.36
2022-11-01T08:44:09.733Z,11.20
2022-11-01T08:46:36.267Z,11.04
2022-11-01T08:49:02.812Z,11.09
2022-11-01T08:51:29.346Z,11.10
2022-11-01T08:53:56.305Z,11.25
2022-11-01T08:56:22.927Z,11.33
2022-11-01T08:58:49.491Z,11.43
2022-11-01T09:01:17.742Z,11.39
2022-11-01T09:03:44.399Z,11.61
2022-11-01T09:06:10.959Z,11.66
2022-11-01T09:08:37.551Z,11.84
2022-11-01T09:11:04.274Z,11.90
2022-11-01T09:13:30.853Z,12.01
2022-11-01T09:16:01.415Z,12.13
2022-11-01T09:18:30.587Z,12.24
2022-11-01T09:20:57.330Z,12.25
2022-11-01T09:23:23.900Z,12.30
2022-11-01T09:25:50.435Z,12.32
2022-11-01T09:28:17.022Z,12.42
2022-11-01T09:30:49.653Z,12.51
2022-11-01T09:33:21.731Z,12.60
2022-11-01T09:35:55.300Z,12.65
2022-11-01T09:38:23.632Z,12.77
2022-11-01T09:40:59.550Z,12.87
2022-11-01T09:43:30.784Z,12.98
2022-11-01T09:45:58.512Z,13.15
2022-11-01T09:48:27.311Z,13.30
2022-11-01T09:50:55.354Z,13.14
2022-11-01T09:53:25.933Z,13.33
2022-11-01T09:56:00.131Z,13.43
2022-11-01T09:58:36.810Z,13.35
2022-11-01T10:01:17.444Z,13.48
2022-11-01T10:03:53.440Z,13.29
2022-11-01T10:06:25.201Z,13.11
2022-11-01T10:09:02.155Z,13.08
2022-11-01T10:11:47.549Z,13.14
2022-11-01T10:14:27.373Z,13.09
2022-11-01T10:17:06.805Z,13.15
2022-11-01T10:19:34.257Z,13.25
2022-11-01T10:22:07.525Z,13.35
2022-11-01T10:24:40.784Z,13.58
2022-11-01T10:27:16.830Z,13.48
2022-11-01T10:29:47.395Z,13.43
2022-11-01T10:32:26.764Z,13.45
2022-11-01T10:34:54.904Z,13.21
2022-11-01T10:37:26.923Z,12.88
2022-11-01T10:39:59.048Z,12.75
2022-11-01T10:42:28.564Z,12.73
2022-11-01T10:44:59.620Z,12.70
2022-11-01T10:47:26.823Z,12.85
2022-11-01T10:50:07.408Z,12.69
2022-11-01T10:52:51.258Z,12.69
2022-11-01T10:55:22.833Z,12.77
2022-11-01T10:57:55.462Z,12.93
2022-11-01T11:00:22.138Z,12.94
2022-11-01T11:02:52.222Z,12.93
2022-11-01T11:05:20.679Z,12.91
2022-11-01T11:07:48.729Z,12.84
2022-11-01T11:10:23.025Z,12.82
2022-11-01T11:12:56.195Z,12.81
2022-11-01T11:15:35.596Z,12.75
2022-11-01T11:18:07.918Z,12.78
2022-11-01T11:20:34.609Z,12.86
2022-11-01T11:23:03.641Z,13.11
2022-11-01T11:25:35.104Z,13.24
2022-11-01T11:28:02.867Z,13.48
2022-11-01T11:30:31.320Z,13.84
2022-11-01T11:32:58.717Z,13.98
2022-11-01T11:35:27.383Z,13.99
2022-11-01T11:37:56.279Z,14.00
2022-11-01T11:40:25.956Z,13.88
2022-11-01T11:42:54.586Z,13.75
2022-11-01T11:45:25.050Z,13.85
2022-11-01T11:47:51.862Z,13.65
2022-11-01T11:50:27.217Z,13.87
2022-11-01T11:52:59.848Z,13.98
2022-11-01T11:55:39.965Z,14.10
2022-11-01T11:58:18.310Z,14.03
2022-11-01T12:00:49.233Z,14.15
2022-11-01T12:03:16.787Z,14.27
2022-11-01T12:05:55.765Z,14.34
2022-11-01T12:08:34.542Z,14.23
2022-11-01T12:11:03.691Z,14.12
2022-11-01T12:13:34.104Z,13.95
2022-11-01T12:16:17.836Z,13.87
2022-11-01T12:18:49.605Z,13.71
2022-11-01T12:21:19.647Z,13.76
2022-11-01T12:23:48.100Z,13.84
2022-11-01T12:26:17.850Z,13.67
2022-11-01T12:28:48.935Z,13.85
2022-11-01T12:31:19.292Z,13.77
2022-11-01T12:33:49.183Z,13.85
2022-11-01T12:36:20.315Z,13.96
2022-11-01T12:38:51.113Z,13.99
2022-11-01T12:41:29.787Z,13.94
2022-11-01T12:44:04.814Z,14.08
2022-11-01T12:46:38.092Z,13.97
2022-11-01T12:49:12.379Z,13.89
2022-11-01T12:51:44.873Z,14.09
2022-11-01T12:54:16.885Z,14.00
2022-11-01T12:56:44.881Z,14.09
2022-11-01T12:59:15.563Z,14.08
2022-11-01T13:01:50.810Z,14.16
2022-11-01T13:04:26.484Z,14.03
2022-11-01T13:07:11.045Z,13.91
2022-11-01T13:09:49.086Z,13.83
2022-11-01T13:12:26.590Z,13.83
2022-11-01T13:15:04.270Z,13.63
2022-11-01T13:17:39.467Z,13.69
2022-11-01T13:20:21.053Z,13.84
2022-11-01T13:22:56.473Z,14.01
2022-11-01T13:25:31.189Z,14.05
2022-11-01T13:28:15.986Z,14.13
2022-11-01T13:30:48.996Z,14.18
2022-11-01T13:33:21.804Z,14.29
2022-11-01T13:35:56.597Z,14.23
2022-11-01T13:38:32.489Z,14.16
2022-11-01T13:41:07.096Z,14.13
2022-11-01T13:43:39.790Z,14.22
2022-11-01T13:46:45.302Z,14.26
2022-11-01T13:49:49.098Z,14.09
2022-11-01T13:52:18.668Z,13.93
2022-11-01T13:54:53.104Z,13.83
2022-11-01T13:57:23.229Z,13.86
2022-11-01T13:59:56.687Z,13.85
2022-11-01T14:02:44.316Z,13.92
2022-11-01T14:05:12.077Z,13.99
2022-11-01T14:07:59.736Z,13.91
2022-11-01T14:10:46.115Z,13.72
2022-11-01T14:13:16.713Z,13.72
2022-11-01T14:16:24.453Z,13.81
2022-11-01T14:19:21.016Z,13.68
2022-11-01T14:21:51.572Z,13.68
2022-11-01T14:24:24.285Z,13.73
2022-11-01T14:27:18.424Z,13.70
2022-11-01T14:29:47.972Z,13.67
2022-11-01T14:32:14.588Z,13.68
2022-11-01T14:34:42.730Z,13.73
2022-11-01T14:37:18.321Z,13.73
2022-11-01T14:39:54.782Z,13.76
2022-11-01T14:42:26.026Z,13.61
2022-11-01T14:44:54.973Z,13.71
2022-11-01T14:47:31.174Z,13.63
2022-11-01T14:50:05.136Z,13.42
2022-11-01T14:52:38.816Z,13.18
2022-11-01T14:55:14.066Z,13.24
2022-11-01T14:57:40.623Z,13.18
2022-11-01T15:00:25.356Z,13.07
2022-11-01T15:02:52.227Z,12.97
2022-11-01T15:05:20.331Z,12.97
2022-11-01T15:07:51.246Z,12.91
2022-11-01T15:10:17.870Z,12.81
2022-11-01T15:12:48.174Z,12.86
2022-11-01T15:15:18.910Z,12.79
2022-11-01T15:17:51.292Z,12.70
2022-11-01T15:20:21.127Z,12.62
2022-11-01T15:22:48.007Z,12.57
2022-11-01T15:25:21.933Z,12.42
2022-11-01T15:27:50.064Z,12.40
2022-11-01T15:30:21.833Z,12.29
2022-11-01T15:32:51.476Z,12.23
2022-11-01T15:35:23.441Z,12.13
2022-11-01T15:37:51.970Z,12.12
2022-11-01T15:40:27.494Z,12.16
2022-11-01T15:42:57.501Z,12.06
2022-11-01T15:45:28.586Z,12.14
2022-11-01T15:47:56.224Z,12.16
2022-11-01T15:50:24.203Z,12.11
2022-11-01T15:52:50.789Z,12.10
2022-11-01T15:55:26.965Z,12.10
2022-11-01T15:57:59.130Z,12.01
2022-11-01T16:00:33.104Z,11.96
2022-11-01T16:03:04.608Z,11.88
2022-11-01T16:05:36.950Z,11.83
2022-11-01T16:08:07.135Z,11.85
2022-11-01T16:10:34.071Z,11.83
2022-11-01T16:13:02.312Z,11.87
2022-11-01T16:15:31.053Z,11.82
2022-11-01T16:18:00.149Z,11.79
2022-11-01T16:20:34.572Z,11.80
2022-11-01T16:23:02.393Z,11.76
2022-11-01T16:25:31.629Z,12.06
2022-11-01T16:28:05.103Z,12.00
2022-11-01T16:30:40.336Z,11.94
2022-11-01T16:33:21.237Z,11.90
2022-11-01T16:35:50.626Z,11.84
2022-11-01T16:38:43.003Z,11.78
2022-11-01T16:41:18.265Z,11.77
2022-11-01T16:43:44.918Z,11.74
2022-11-01T16:46:11.631Z,11.75
2022-11-01T16:48:49.790Z,11.69
2022-11-01T16:51:18.373Z,11.65
2022-11-01T16:53:45.000Z,11.58
2022-11-01T16:56:35.574Z,11.52
2022-11-01T16:59:06.957Z,11.57
2022-11-01T17:01:35.868Z,11.52
2022-11-01T17:04:04.460Z,11.61
2022-11-01T17:06:36.130Z,11.56
2022-11-01T17:09:11.817Z,11.55
2022-11-01T17:11:38.394Z,11.55
2022-11-01T17:14:04.957Z,11.52
2022-11-01T17:16:31.805Z,11.53
2022-11-01T17:19:00.895Z,11.52
2022-11-01T17:21:30.960Z,11.61
2022-11-01T17:23:59.087Z,11.60
2022-11-01T17:26:25.664Z,11.65
2022-11-01T17:28:52.480Z,11.60
2022-11-01T17:31:19.299Z,11.67
2022-11-01T17:33:45.920Z,11.71
2022-11-01T17:36:14.219Z,11.75
2022-11-01T17:38:41.429Z,11.78
2022-11-01T17:41:14.885Z,11.74
2022-11-01T17:43:41.437Z,11.62
2022-11-01T17:46:13.392Z,11.71
2022-11-01T17:48:39.742Z,11.65
2022-11-01T17:51:06.591Z,11.60
2022-11-01T17:53:33.144Z,11.60
2022-11-01T17:55:59.700Z,11.68
2022-11-01T17:58:27.641Z,11.77
2022-11-01T18:00:54.273Z,11.72
2022-11-01T18:03:20.892Z,11.65
2022-11-01T18:05:47.471Z,11.64
2022-11-01T18:08:16.486Z,11.75
2022-11-01T18:10:48.735Z,11.75
2022-11-01T18:13:50.432Z,11.77
2022-11-01T18:16:26.465Z,11.73
2022-11-01T18:19:34.804Z,11.83
2022-11-01T18:22:09.639Z,11.74
2022-11-01T18:24:41.763Z,11.66
2022-11-01T18:27:10.052Z,11.63
2022-11-01T18:29:41.166Z,11.57
2022-11-01T18:32:16.146Z,11.58
2022-11-01T18:34:47.689Z,11.65
2022-11-01T18:37:23.975Z,11.64
2022-11-01T18:39:58.157Z,11.61
2022-11-01T18:42:24.754Z,11.63
2022-11-01T18:44:56.944Z,11.60
2022-11-01T18:47:29.766Z,11.69
2022-11-01T18:49:59.546Z,11.60
2022-11-01T18:52:27.408Z,11.55
2022-11-01T18:54:56.843Z,11.57
2022-11-01T18:57:24.094Z,11.55
2022-11-01T18:59:53.120Z,11.62
2022-11-01T19:02:21.914Z,11.63
2022-11-01T19:04:51.116Z,11.54
2022-11-01T19:07:19.172Z,11.55
2022-11-01T19:09:52.295Z,11.48
2022-11-01T19:12:26.888Z,11.44
2022-11-01T19:15:03.211Z,11.42
2022-11-01T19:17:34.852Z,11.40
2022-11-01T19:20:01.465Z,11.46
2022-11-01T19:22:32.580Z,11.42
2022-11-01T19:25:00.260Z,11.54
2022-11-01T19:27:26.922Z,11.49
2022-11-01T19:29:57.777Z,11.46
2022-11-01T19:32:26.272Z,11.53
2022-11-01T19:34:54.645Z,11.60
2022-11-01T19:37:29.204Z,11.50
2022-11-01T19:39:58.196Z,11.49
2022-11-01T19:42:28.023Z,11.51
2022-11-01T19:44:57.889Z,11.68
2022-11-01T19:47:45.957Z,11.51
2022-11-01T19:50:20.322Z,11.49
2022-11-01T19:52:47.716Z,11.49
2022-11-01T19:55:38.536Z,11.47
2022-11-01T19:58:25.654Z,11.51
2022-11-01T20:01:15.223Z,11.54
2022-11-01T20:03:46.635Z,11.56
2022-11-01T20:06:16.294Z,11.50
2022-11-01T20:08:43.350Z,11.46
2022-11-01T20:11:09.923Z,11.56
2022-11-01T20:13:36.451Z,11.45
2022-11-01T20:16:03.013Z,11.41
2022-11-01T20:18:29.585Z,11.46
2022-11-01T20:20:57.554Z,11.53
2022-11-01T20:23:26.952Z,11.41
2022-11-01T20:25:54.241Z,11.37
2022-11-01T20:28:20.831Z,11.31
2022-11-01T20:30:47.429Z,11.25
2022-11-01T20:33:14.018Z,11.27
2022-11-01T20:35:40.587Z,11.27
2022-11-01T20:38:08.690Z,11.22
2022-11-01T20:40:35.788Z,11.17
2022-11-01T20:43:02.572Z,11.00
2022-11-01T20:45:29.460Z,10.97
2022-11-01T20:47:56.039Z,10.90
2022-11-01T20:50:22.618Z,10.96
2022-11-01T20:52:49.164Z,10.86
2022-11-01T20:55:17.456Z,10.94
2022-11-01T20:57:44.252Z,10.82
2022-11-01T21:00:12.172Z,10.75
2022-11-01T21:02:38.759Z,10.80
2022-11-01T21:05:15.137Z,10.70
2022-11-01T21:07:46.746Z,10.61
2022-11-01T21:10:31.790Z,10.57
2022-11-01T21:12:59.605Z,10.54
2022-11-01T21:15:33.153Z,10.58
2022-11-01T21:18:25.317Z,10.61
2022-11-01T21:20:51.768Z,10.51
2022-11-01T21:23:25.440Z,10.57
2022-11-01T21:25:54.936Z,10.65
2022-11-01T21:28:27.908Z,10.63
2022-11-01T21:30:55.015Z,10.66
2022-11-01T21:33:31.495Z,10.72
2022-11-01T21:35:58.061Z,10.69
2022-11-01T21:38:40.906Z,10.67
2022-11-01T21:41:34.286Z,10.75
2022-11-01T21:44:14.247Z,10.76
2022-11-01T21:46:41.560Z,10.75
2022-11-01T21:49:23.953Z,10.87
2022-11-01T21:51:50.557Z,10.86
2022-11-01T21:54:17.126Z,10.86
2022-11-01T21:56:45.111Z,10.78
2022-11-01T21:59:11.981Z,10.80
2022-11-01T22:01:39.609Z,10.82
2022-11-01T22:04:06.286Z,10.81
2022-11-01T22:06:32.844Z,10.85
2022-11-01T22:08:59.400Z,10.88
2022-11-01T22:11:30.216Z,10.85
2022-11-01T22:14:00.509Z,10.88
2022-11-01T22:16:27.344Z,10.85
2022-11-01T22:18:54.009Z,10.83
2022-11-01T22:21:20.587Z,10.95
2022-11-01T22:23:47.454Z,10.86
2022-11-01T22:26:14.050Z,10.93
2022-11-01T22:28:40.653Z,10.99
2022-11-01T22:31:08.696Z,10.94
2022-11-01T22:33:36.021Z,10.97
2022-11-01T22:36:03.448Z,11.05
2022-11-01T22:38:35.431Z,11.00
2022-11-01T22:41:10.118Z,10.97
2022-11-01T22:43:40.342Z,10.92
2022-11-01T22:46:17.583Z,10.98
2022-11-01T22:48:44.157Z,10.95
2022-11-01T22:51:20.468Z,11.12
2022-11-01T22:53:47.168Z,11.12
2022-11-01T22:56:14.510Z,11.07
2022-11-01T22:58:41.113Z,11.05
2022-11-01T23:01:19.478Z,11.03
2022-11-01T23:03:51.711Z,11.07
2022-11-01T23:06:32.652Z,11.07
2022-11-01T23:09:10.636Z,11.17
2022-11-01T23:11:37.224Z,11.14
2022-11-01T23:14:15.855Z,11.08
2022-11-01T23:16:44.136Z,11.01
2022-11-01T23:19:13.356Z,11.01
2022-11-01T23:21:40.032Z,11.02
2022-11-01T23:24:07.566Z,11.11
2022-11-01T23:26:34.288Z,11.29
2022-11-01T23:29:01.768Z,11.20
2022-11-01T23:31:29.206Z,11.22
2022-11-01T23:33:57.157Z,11.15
2022-11-01T23:36:27.487Z,11.18
2022-11-01T23:38:56.495Z,11.11
2022-11-01T23:41:25.276Z,11.10
2022-11-01T23:43:53.792Z,11.26
2022-11-01T23:46:20.477Z,11.35
2022-11-01T23:48:47.430Z,11.24
2022-11-01T23:51:19.035Z,11.22
2022-11-01T23:53:48.304Z,11.30
2022-11-01T23:56:18.813Z,11.22
2022-11-01T23:58:48.289Z,11.20
